KHEI

Hettinger Municipal Airport

Hettinger, North Dakota, USA
METAR KHEI 210453Z AUTO 34003KT 10SM BKN100 OVC120 13/09 A3028 RMK AO2 SLP251 T01330089 TSNO
Observed Flight Rules
Aug-21 @ 04:53 UTC (9 hours ago) Visual Flight Rules
Wind Visibility Clouds
340° at 3 knots 10 miles
  • Broken at 10,000' AGL
  • Overcast at 12,000' AGL
Temperatures Readings
Current 13°C / 55°F
Dewpoint 9°C / 48°F
Humidity 77%
Altimeter 30.28" Hg
Pressure 1025.1 hPa
Elevation 828
METAR KHEI 210453Z AUTO 34003KT 10SM BKN100 OVC120 13/09 A3028 RMK AO2 SLP251 T01330089 TSNO
Observed Flight Rules
Aug-21 @ 04:53 UTC
(9 hours ago)
VFR
Wind Visibility
340° at 3 knots 10 miles
Clouds
  • Broken at 10,000' AGL
  • Overcast at 12,000' AGL
Temperature Dewpoint
13°C / 55°F 9°C / 48°F
Humidity Altimeter Pressure
77% 30.28" Hg 1025.1 hPa